sensor_id;sensor_type;location;lat;lon;timestamp;pressure;altitude;pressure_sealevel;temperature;humidity
4735;BME280;2381;50.676;12.612;2022-07-29T00:00:10;97533.22;;;15.82;92.19
4735;BME280;2381;50.676;12.612;2022-07-29T00:03:13;97538.84;;;15.99;90.05
4735;BME280;2381;50.676;12.612;2022-07-29T00:06:16;97533.50;;;16.05;88.86
4735;BME280;2381;50.676;12.612;2022-07-29T00:09:21;97526.97;;;16.08;89.86
4735;BME280;2381;50.676;12.612;2022-07-29T00:12:24;97524.97;;;15.97;90.15
4735;BME280;2381;50.676;12.612;2022-07-29T00:15:28;97521.28;;;15.98;89.96
4735;BME280;2381;50.676;12.612;2022-07-29T00:18:30;97523.72;;;15.99;89.00
4735;BME280;2381;50.676;12.612;2022-07-29T00:21:34;97512.09;;;16.00;89.44
4735;BME280;2381;50.676;12.612;2022-07-29T00:24:38;97509.78;;;16.04;88.24
4735;BME280;2381;50.676;12.612;2022-07-29T00:27:40;97497.81;;;15.95;89.18
4735;BME280;2381;50.676;12.612;2022-07-29T00:30:43;97497.97;;;16.00;88.56
4735;BME280;2381;50.676;12.612;2022-07-29T00:33:46;97488.97;;;16.01;87.31
4735;BME280;2381;50.676;12.612;2022-07-29T00:36:49;97489.38;;;16.04;87.82
4735;BME280;2381;50.676;12.612;2022-07-29T00:39:52;97492.25;;;15.96;90.34
4735;BME280;2381;50.676;12.612;2022-07-29T00:42:55;97489.56;;;16.03;90.15
4735;BME280;2381;50.676;12.612;2022-07-29T00:45:59;97491.47;;;15.96;90.13
4735;BME280;2381;50.676;12.612;2022-07-29T00:49:03;97482.28;;;15.92;89.46
4735;BME280;2381;50.676;12.612;2022-07-29T00:52:07;97486.16;;;15.96;87.42
4735;BME280;2381;50.676;12.612;2022-07-29T00:55:14;97486.75;;;15.98;88.59
4735;BME280;2381;50.676;12.612;2022-07-29T00:58:17;97483.31;;;15.91;88.22
4735;BME280;2381;50.676;12.612;2022-07-29T01:01:20;97483.25;;;15.97;88.71
4735;BME280;2381;50.676;12.612;2022-07-29T01:04:23;97475.94;;;15.93;89.22
4735;BME280;2381;50.676;12.612;2022-07-29T01:07:26;97476.56;;;15.95;89.35
4735;BME280;2381;50.676;12.612;2022-07-29T01:10:31;97478.78;;;15.98;88.18
4735;BME280;2381;50.676;12.612;2022-07-29T01:13:34;97476.31;;;15.96;88.50
4735;BME280;2381;50.676;12.612;2022-07-29T01:16:43;97476.28;;;16.03;88.58
4735;BME280;2381;50.676;12.612;2022-07-29T01:19:51;97481.78;;;16.08;88.38
4735;BME280;2381;50.676;12.612;2022-07-29T01:23:11;97482.97;;;16.12;87.02
4735;BME280;2381;50.676;12.612;2022-07-29T01:26:30;97484.41;;;16.14;86.30
4735;BME280;2381;50.676;12.612;2022-07-29T01:29:41;97487.25;;;16.13;86.89
4735;BME280;2381;50.676;12.612;2022-07-29T01:32:50;97482.78;;;16.13;88.17
4735;BME280;2381;50.676;12.612;2022-07-29T01:35:57;97470.56;;;16.06;87.97
4735;BME280;2381;50.676;12.612;2022-07-29T01:39:06;97475.09;;;15.99;89.18
4735;BME280;2381;50.676;12.612;2022-07-29T01:42:15;97471.19;;;16.01;90.77
4735;BME280;2381;50.676;12.612;2022-07-29T01:45:28;97461.75;;;15.68;93.11
4735;BME280;2381;50.676;12.612;2022-07-29T01:48:37;97468.22;;;15.85;93.85
4735;BME280;2381;50.676;12.612;2022-07-29T01:51:46;97458.91;;;15.69;94.86
4735;BME280;2381;50.676;12.612;2022-07-29T01:54:53;97451.75;;;15.70;95.83
4735;BME280;2381;50.676;12.612;2022-07-29T01:57:59;97450.38;;;15.55;95.83
4735;BME280;2381;50.676;12.612;2022-07-29T02:01:05;97445.09;;;15.48;96.15
4735;BME280;2381;50.676;12.612;2022-07-29T02:04:12;97447.06;;;15.65;97.24
4735;BME280;2381;50.676;12.612;2022-07-29T02:07:31;97442.97;;;15.63;96.95
4735;BME280;2381;50.676;12.612;2022-07-29T02:10:35;97439.31;;;15.64;96.87
4735;BME280;2381;50.676;12.612;2022-07-29T02:13:41;97442.56;;;15.66;96.58
4735;BME280;2381;50.676;12.612;2022-07-29T02:16:47;97433.59;;;15.67;96.86
4735;BME280;2381;50.676;12.612;2022-07-29T02:19:51;97431.56;;;15.63;96.38
4735;BME280;2381;50.676;12.612;2022-07-29T02:22:57;97427.63;;;15.71;93.76
4735;BME280;2381;50.676;12.612;2022-07-29T02:26:01;97426.19;;;15.75;94.39
4735;BME280;2381;50.676;12.612;2022-07-29T02:29:06;97419.25;;;15.74;94.10
4735;BME280;2381;50.676;12.612;2022-07-29T02:32:11;97422.09;;;15.73;95.43
4735;BME280;2381;50.676;12.612;2022-07-29T02:35:16;97421.38;;;15.60;96.56
4735;BME280;2381;50.676;12.612;2022-07-29T02:38:20;97427.72;;;15.52;99.45
4735;BME280;2381;50.676;12.612;2022-07-29T02:41:42;97430.38;;;15.52;96.78
4735;BME280;2381;50.676;12.612;2022-07-29T02:44:46;97433.44;;;15.49;99.89
4735;BME280;2381;50.676;12.612;2022-07-29T02:47:50;97429.53;;;15.58;100.00
4735;BME280;2381;50.676;12.612;2022-07-29T02:51:05;97431.00;;;15.54;100.00
4735;BME280;2381;50.676;12.612;2022-07-29T02:54:22;97425.06;;;15.52;100.00
4735;BME280;2381;50.676;12.612;2022-07-29T02:57:31;97420.53;;;15.59;98.81
4735;BME280;2381;50.676;12.612;2022-07-29T03:00:37;97422.13;;;15.66;98.01
4735;BME280;2381;50.676;12.612;2022-07-29T03:03:44;97427.84;;;15.70;98.34
4735;BME280;2381;50.676;12.612;2022-07-29T03:06:49;97427.41;;;15.73;98.55
4735;BME280;2381;50.676;12.612;2022-07-29T03:09:53;97432.47;;;15.81;98.46
4735;BME280;2381;50.676;12.612;2022-07-29T03:12:57;97422.03;;;15.86;98.13
4735;BME280;2381;50.676;12.612;2022-07-29T03:16:00;97419.38;;;15.86;96.95
4735;BME280;2381;50.676;12.612;2022-07-29T03:19:05;97428.13;;;15.93;95.86
4735;BME280;2381;50.676;12.612;2022-07-29T03:22:09;97419.75;;;15.96;95.32
4735;BME280;2381;50.676;12.612;2022-07-29T03:25:13;97424.41;;;15.94;94.35
4735;BME280;2381;50.676;12.612;2022-07-29T03:28:16;97428.75;;;15.95;95.05
4735;BME280;2381;50.676;12.612;2022-07-29T03:31:19;97422.41;;;15.96;94.30
4735;BME280;2381;50.676;12.612;2022-07-29T03:34:23;97429.34;;;15.97;94.89
4735;BME280;2381;50.676;12.612;2022-07-29T03:37:26;97424.78;;;16.04;94.72
4735;BME280;2381;50.676;12.612;2022-07-29T03:40:32;97423.94;;;16.10;94.07
4735;BME280;2381;50.676;12.612;2022-07-29T03:43:38;97428.66;;;16.08;96.44
4735;BME280;2381;50.676;12.612;2022-07-29T03:46:51;97430.53;;;16.01;96.47
4735;BME280;2381;50.676;12.612;2022-07-29T03:50:05;97423.03;;;15.91;99.42
4735;BME280;2381;50.676;12.612;2022-07-29T03:53:11;97438.06;;;16.04;98.00
4735;BME280;2381;50.676;12.612;2022-07-29T03:56:15;97442.78;;;16.02;98.93
4735;BME280;2381;50.676;12.612;2022-07-29T03:59:19;97443.81;;;16.01;100.00
4735;BME280;2381;50.676;12.612;2022-07-29T04:02:23;97448.97;;;15.96;99.36
4735;BME280;2381;50.676;12.612;2022-07-29T04:05:32;97443.38;;;16.04;100.00
4735;BME280;2381;50.676;12.612;2022-07-29T04:08:35;97441.78;;;15.96;100.00
4735;BME280;2381;50.676;12.612;2022-07-29T04:11:39;97448.41;;;15.81;100.00
4735;BME280;2381;50.676;12.612;2022-07-29T04:15:02;97439.06;;;15.72;100.00
4735;BME280;2381;50.676;12.612;2022-07-29T04:18:05;97440.56;;;15.62;100.00
4735;BME280;2381;50.676;12.612;2022-07-29T04:21:09;97437.31;;;15.53;100.00
4735;BME280;2381;50.676;12.612;2022-07-29T04:24:11;97435.78;;;15.76;100.00
4735;BME280;2381;50.676;12.612;2022-07-29T04:27:15;97443.06;;;15.87;100.00
4735;BME280;2381;50.676;12.612;2022-07-29T04:30:18;97446.34;;;15.83;100.00
4735;BME280;2381;50.676;12.612;2022-07-29T04:33:20;97436.28;;;15.98;100.00
4735;BME280;2381;50.676;12.612;2022-07-29T04:36:26;97436.44;;;16.03;100.00
4735;BME280;2381;50.676;12.612;2022-07-29T04:39:30;97433.19;;;16.01;100.00
4735;BME280;2381;50.676;12.612;2022-07-29T04:42:33;97437.06;;;16.05;100.00
4735;BME280;2381;50.676;12.612;2022-07-29T04:45:47;97439.78;;;16.23;100.00
4735;BME280;2381;50.676;12.612;2022-07-29T04:48:49;97441.59;;;16.29;100.00
4735;BME280;2381;50.676;12.612;2022-07-29T04:51:53;97446.13;;;16.22;100.00
4735;BME280;2381;50.676;12.612;2022-07-29T04:54:56;97437.56;;;16.20;100.00
4735;BME280;2381;50.676;12.612;2022-07-29T04:57:59;97447.75;;;16.23;100.00
4735;BME280;2381;50.676;12.612;2022-07-29T05:01:03;97449.13;;;16.32;100.00
4735;BME280;2381;50.676;12.612;2022-07-29T05:04:06;97446.25;;;16.33;100.00
4735;BME280;2381;50.676;12.612;2022-07-29T05:07:10;97448.34;;;16.25;100.00
4735;BME280;2381;50.676;12.612;2022-07-29T05:10:13;97449.59;;;16.22;100.00
4735;BME280;2381;50.676;12.612;2022-07-29T05:13:15;97452.84;;;16.24;100.00
4735;BME280;2381;50.676;12.612;2022-07-29T05:16:18;97450.84;;;16.20;100.00
4735;BME280;2381;50.676;12.612;2022-07-29T05:19:21;97451.19;;;16.30;100.00
4735;BME280;2381;50.676;12.612;2022-07-29T05:22:26;97465.50;;;16.29;100.00
4735;BME280;2381;50.676;12.612;2022-07-29T05:25:29;97461.59;;;16.38;100.00
4735;BME280;2381;50.676;12.612;2022-07-29T05:28:44;97447.09;;;16.27;100.00
4735;BME280;2381;50.676;12.612;2022-07-29T05:31:47;97455.66;;;16.29;100.00
4735;BME280;2381;50.676;12.612;2022-07-29T05:34:50;97459.75;;;16.32;100.00
4735;BME280;2381;50.676;12.612;2022-07-29T05:37:54;97453.19;;;16.34;100.00
4735;BME280;2381;50.676;12.612;2022-07-29T05:40:57;97452.66;;;16.57;100.00
4735;BME280;2381;50.676;12.612;2022-07-29T05:44:00;97449.88;;;16.70;100.00
4735;BME280;2381;50.676;12.612;2022-07-29T05:47:03;97447.66;;;16.67;100.00
4735;BME280;2381;50.676;12.612;2022-07-29T05:50:07;97449.63;;;16.78;100.00
4735;BME280;2381;50.676;12.612;2022-07-29T05:53:11;97456.56;;;16.79;100.00
4735;BME280;2381;50.676;12.612;2022-07-29T05:56:20;97455.00;;;16.89;100.00
4735;BME280;2381;50.676;12.612;2022-07-29T05:59:23;97438.63;;;16.92;100.00
4735;BME280;2381;50.676;12.612;2022-07-29T06:02:30;97446.53;;;16.99;100.00
4735;BME280;2381;50.676;12.612;2022-07-29T06:05:33;97444.47;;;17.01;100.00
4735;BME280;2381;50.676;12.612;2022-07-29T06:08:38;97442.56;;;17.08;100.00
4735;BME280;2381;50.676;12.612;2022-07-29T06:11:41;97444.34;;;17.14;100.00
4735;BME280;2381;50.676;12.612;2022-07-29T06:14:44;97447.75;;;17.21;100.00
4735;BME280;2381;50.676;12.612;2022-07-29T06:17:52;97449.09;;;17.30;100.00
4735;BME280;2381;50.676;12.612;2022-07-29T06:21:07;97449.84;;;17.37;100.00
4735;BME280;2381;50.676;12.612;2022-07-29T06:24:12;97445.72;;;17.41;100.00
4735;BME280;2381;50.676;12.612;2022-07-29T06:27:16;97444.81;;;17.47;100.00
4735;BME280;2381;50.676;12.612;2022-07-29T06:30:19;97449.25;;;17.53;100.00
4735;BME280;2381;50.676;12.612;2022-07-29T06:33:22;97442.59;;;17.62;100.00
4735;BME280;2381;50.676;12.612;2022-07-29T06:36:24;97447.25;;;17.66;100.00
4735;BME280;2381;50.676;12.612;2022-07-29T06:39:29;97442.63;;;17.73;100.00
4735;BME280;2381;50.676;12.612;2022-07-29T06:42:32;97450.56;;;17.80;100.00
4735;BME280;2381;50.676;12.612;2022-07-29T06:45:35;97454.56;;;17.89;100.00
4735;BME280;2381;50.676;12.612;2022-07-29T06:48:41;97455.72;;;17.93;100.00
4735;BME280;2381;50.676;12.612;2022-07-29T06:51:44;97464.06;;;17.96;100.00
4735;BME280;2381;50.676;12.612;2022-07-29T06:54:48;97463.41;;;18.01;100.00
4735;BME280;2381;50.676;12.612;2022-07-29T06:57:52;97452.19;;;18.10;100.00
4735;BME280;2381;50.676;12.612;2022-07-29T07:00:55;97453.72;;;18.18;99.57
4735;BME280;2381;50.676;12.612;2022-07-29T07:03:58;97449.78;;;18.20;99.44
4735;BME280;2381;50.676;12.612;2022-07-29T07:07:04;97448.25;;;18.31;99.26
4735;BME280;2381;50.676;12.612;2022-07-29T07:10:08;97454.63;;;18.30;97.12
4735;BME280;2381;50.676;12.612;2022-07-29T07:13:11;97456.34;;;18.36;98.63
4735;BME280;2381;50.676;12.612;2022-07-29T07:16:14;97461.22;;;18.38;100.00
4735;BME280;2381;50.676;12.612;2022-07-29T07:19:17;97460.78;;;18.42;100.00
4735;BME280;2381;50.676;12.612;2022-07-29T07:22:20;97458.22;;;18.46;100.00
4735;BME280;2381;50.676;12.612;2022-07-29T07:25:24;97458.59;;;18.50;100.00
4735;BME280;2381;50.676;12.612;2022-07-29T07:28:27;97451.75;;;18.54;98.46
4735;BME280;2381;50.676;12.612;2022-07-29T07:31:31;97456.19;;;18.60;97.45
4735;BME280;2381;50.676;12.612;2022-07-29T07:34:34;97459.56;;;18.67;96.10
4735;BME280;2381;50.676;12.612;2022-07-29T07:37:37;97464.31;;;18.76;96.93
4735;BME280;2381;50.676;12.612;2022-07-29T07:40:43;97453.09;;;18.86;100.00
4735;BME280;2381;50.676;12.612;2022-07-29T07:43:48;97448.31;;;18.99;98.49
4735;BME280;2381;50.676;12.612;2022-07-29T07:46:51;97459.22;;;19.09;96.28
4735;BME280;2381;50.676;12.612;2022-07-29T07:49:55;97454.00;;;19.14;96.93
4735;BME280;2381;50.676;12.612;2022-07-29T07:52:58;97462.72;;;19.21;97.84
4735;BME280;2381;50.676;12.612;2022-07-29T07:56:02;97470.63;;;19.28;97.05
4735;BME280;2381;50.676;12.612;2022-07-29T07:59:12;97467.50;;;19.31;98.86
4735;BME280;2381;50.676;12.612;2022-07-29T08:02:14;97466.44;;;19.43;98.01
4735;BME280;2381;50.676;12.612;2022-07-29T08:05:17;97465.97;;;19.46;97.27
4735;BME280;2381;50.676;12.612;2022-07-29T08:08:20;97459.44;;;19.65;95.80
4735;BME280;2381;50.676;12.612;2022-07-29T08:11:25;97460.19;;;19.89;95.42
4735;BME280;2381;50.676;12.612;2022-07-29T08:14:28;97458.50;;;20.11;94.49
4735;BME280;2381;50.676;12.612;2022-07-29T08:17:31;97452.19;;;20.33;89.63
4735;BME280;2381;50.676;12.612;2022-07-29T08:20:36;97453.22;;;20.60;85.71
4735;BME280;2381;50.676;12.612;2022-07-29T08:23:40;97446.06;;;20.82;86.50
4735;BME280;2381;50.676;12.612;2022-07-29T08:26:56;97444.13;;;21.11;84.67
4735;BME280;2381;50.676;12.612;2022-07-29T08:29:59;97445.97;;;21.26;82.82
4735;BME280;2381;50.676;12.612;2022-07-29T08:33:01;97453.13;;;21.59;81.23
4735;BME280;2381;50.676;12.612;2022-07-29T08:36:05;97442.59;;;21.74;77.95
4735;BME280;2381;50.676;12.612;2022-07-29T08:39:08;97455.28;;;22.00;74.96
4735;BME280;2381;50.676;12.612;2022-07-29T08:42:12;97451.13;;;22.14;76.80
4735;BME280;2381;50.676;12.612;2022-07-29T08:45:16;97445.44;;;22.37;75.39
4735;BME280;2381;50.676;12.612;2022-07-29T08:48:21;97451.84;;;22.89;71.81
4735;BME280;2381;50.676;12.612;2022-07-29T08:51:25;97443.63;;;22.69;71.56
4735;BME280;2381;50.676;12.612;2022-07-29T08:54:29;97444.69;;;22.99;69.88
4735;BME280;2381;50.676;12.612;2022-07-29T08:57:34;97438.00;;;23.07;71.10
4735;BME280;2381;50.676;12.612;2022-07-29T09:00:42;97449.41;;;23.19;69.61
4735;BME280;2381;50.676;12.612;2022-07-29T09:03:46;97440.78;;;23.17;69.58
4735;BME280;2381;50.676;12.612;2022-07-29T09:06:51;97434.53;;;23.48;69.63
4735;BME280;2381;50.676;12.612;2022-07-29T09:09:54;97431.84;;;23.48;68.07
4735;BME280;2381;50.676;12.612;2022-07-29T09:12:59;97427.63;;;23.67;65.91
4735;BME280;2381;50.676;12.612;2022-07-29T09:16:01;97432.88;;;23.93;65.63
4735;BME280;2381;50.676;12.612;2022-07-29T09:19:19;97421.91;;;24.14;65.95
4735;BME280;2381;50.676;12.612;2022-07-29T09:22:28;97425.66;;;24.13;67.08
4735;BME280;2381;50.676;12.612;2022-07-29T09:25:33;97419.75;;;24.16;64.44
4735;BME280;2381;50.676;12.612;2022-07-29T09:28:41;97414.94;;;24.43;63.29
4735;BME280;2381;50.676;12.612;2022-07-29T09:31:46;97420.91;;;24.70;63.33
4735;BME280;2381;50.676;12.612;2022-07-29T09:34:50;97412.81;;;25.05;63.46
4735;BME280;2381;50.676;12.612;2022-07-29T09:38:09;97421.72;;;25.21;61.57
4735;BME280;2381;50.676;12.612;2022-07-29T09:41:12;97421.34;;;25.52;59.59
4735;BME280;2381;50.676;12.612;2022-07-29T09:44:17;97419.22;;;25.34;62.35
4735;BME280;2381;50.676;12.612;2022-07-29T09:47:20;97412.13;;;25.63;60.83
4735;BME280;2381;50.676;12.612;2022-07-29T09:50:37;97405.19;;;25.47;58.28
4735;BME280;2381;50.676;12.612;2022-07-29T09:53:40;97397.63;;;25.49;60.23
4735;BME280;2381;50.676;12.612;2022-07-29T09:56:43;97396.66;;;25.89;60.07
4735;BME280;2381;50.676;12.612;2022-07-29T09:59:55;97395.06;;;25.78;60.34
4735;BME280;2381;50.676;12.612;2022-07-29T10:02:59;97395.31;;;25.91;57.16
4735;BME280;2381;50.676;12.612;2022-07-29T10:06:05;97394.50;;;25.91;58.43
4735;BME280;2381;50.676;12.612;2022-07-29T10:09:09;97380.66;;;26.02;57.63
4735;BME280;2381;50.676;12.612;2022-07-29T10:12:12;97373.69;;;25.96;56.82
4735;BME280;2381;50.676;12.612;2022-07-29T10:15:31;97375.63;;;26.29;57.83
4735;BME280;2381;50.676;12.612;2022-07-29T10:18:35;97372.97;;;26.24;58.72
4735;BME280;2381;50.676;12.612;2022-07-29T10:21:40;97363.63;;;26.50;58.23
4735;BME280;2381;50.676;12.612;2022-07-29T10:24:45;97365.44;;;26.60;54.41
4735;BME280;2381;50.676;12.612;2022-07-29T10:27:49;97359.50;;;26.58;55.89
4735;BME280;2381;50.676;12.612;2022-07-29T10:31:00;97359.00;;;26.12;55.22
4735;BME280;2381;50.676;12.612;2022-07-29T10:34:10;97360.78;;;26.27;57.73
4735;BME280;2381;50.676;12.612;2022-07-29T10:37:23;97370.31;;;26.19;58.02
4735;BME280;2381;50.676;12.612;2022-07-29T10:40:42;97362.69;;;26.26;56.94
4735;BME280;2381;50.676;12.612;2022-07-29T10:44:13;97360.66;;;26.08;56.10
4735;BME280;2381;50.676;12.612;2022-07-29T10:47:22;97359.19;;;25.77;56.40
4735;BME280;2381;50.676;12.612;2022-07-29T10:50:26;97349.50;;;25.71;58.12
4735;BME280;2381;50.676;12.612;2022-07-29T10:53:46;97352.75;;;25.68;57.52
4735;BME280;2381;50.676;12.612;2022-07-29T10:56:51;97356.53;;;25.67;59.73
4735;BME280;2381;50.676;12.612;2022-07-29T11:03:44;97348.72;;;25.71;59.12
4735;BME280;2381;50.676;12.612;2022-07-29T11:07:06;97341.38;;;25.76;59.77
4735;BME280;2381;50.676;12.612;2022-07-29T11:10:20;97340.88;;;25.69;60.01
4735;BME280;2381;50.676;12.612;2022-07-29T11:13:51;97341.75;;;25.55;60.02
4735;BME280;2381;50.676;12.612;2022-07-29T11:17:03;97339.31;;;25.53;59.99
4735;BME280;2381;50.676;12.612;2022-07-29T11:20:34;97331.22;;;25.53;60.31
4735;BME280;2381;50.676;12.612;2022-07-29T11:23:38;97330.13;;;25.54;61.29
4735;BME280;2381;50.676;12.612;2022-07-29T11:27:06;97339.31;;;25.53;60.13
4735;BME280;2381;50.676;12.612;2022-07-29T11:30:09;97338.22;;;25.54;59.12
4735;BME280;2381;50.676;12.612;2022-07-29T11:33:27;97332.25;;;25.62;59.07
4735;BME280;2381;50.676;12.612;2022-07-29T11:37:22;97323.25;;;25.87;59.28
4735;BME280;2381;50.676;12.612;2022-07-29T11:40:29;97329.75;;;26.24;59.79
4735;BME280;2381;50.676;12.612;2022-07-29T11:43:46;97331.31;;;26.30;57.89
4735;BME280;2381;50.676;12.612;2022-07-29T11:46:51;97328.63;;;26.30;57.08
4735;BME280;2381;50.676;12.612;2022-07-29T11:49:55;97333.47;;;26.33;57.17
4735;BME280;2381;50.676;12.612;2022-07-29T11:53:03;97325.97;;;26.59;56.69
4735;BME280;2381;50.676;12.612;2022-07-29T11:56:14;97331.25;;;26.40;56.37
4735;BME280;2381;50.676;12.612;2022-07-29T11:59:21;97322.41;;;26.30;56.96
4735;BME280;2381;50.676;12.612;2022-07-29T12:02:41;97320.34;;;26.17;54.63
4735;BME280;2381;50.676;12.612;2022-07-29T12:05:49;97316.25;;;26.24;55.78
4735;BME280;2381;50.676;12.612;2022-07-29T12:08:53;97309.06;;;26.43;55.84
4735;BME280;2381;50.676;12.612;2022-07-29T12:11:58;97302.06;;;26.71;55.45
4735;BME280;2381;50.676;12.612;2022-07-29T12:15:15;97300.09;;;26.81;54.36
4735;BME280;2381;50.676;12.612;2022-07-29T12:18:23;97301.81;;;26.72;53.58
4735;BME280;2381;50.676;12.612;2022-07-29T12:21:26;97304.34;;;26.59;54.58
4735;BME280;2381;50.676;12.612;2022-07-29T12:24:43;97300.56;;;26.60;55.27
4735;BME280;2381;50.676;12.612;2022-07-29T12:27:47;97299.84;;;26.49;53.32
4735;BME280;2381;50.676;12.612;2022-07-29T12:30:50;97306.59;;;26.47;55.02
4735;BME280;2381;50.676;12.612;2022-07-29T12:33:56;97301.28;;;26.37;55.04
4735;BME280;2381;50.676;12.612;2022-07-29T12:37:18;97289.63;;;26.41;55.18
4735;BME280;2381;50.676;12.612;2022-07-29T12:40:42;97300.78;;;26.35;55.56
4735;BME280;2381;50.676;12.612;2022-07-29T12:43:52;97294.03;;;26.32;56.27
4735;BME280;2381;50.676;12.612;2022-07-29T12:47:02;97288.03;;;26.40;56.36
4735;BME280;2381;50.676;12.612;2022-07-29T12:50:09;97298.34;;;26.33;56.52
4735;BME280;2381;50.676;12.612;2022-07-29T12:53:13;97301.13;;;26.23;55.03
4735;BME280;2381;50.676;12.612;2022-07-29T12:56:19;97300.34;;;26.23;56.54
4735;BME280;2381;50.676;12.612;2022-07-29T12:59:42;97298.94;;;26.25;58.65
4735;BME280;2381;50.676;12.612;2022-07-29T13:02:54;97307.13;;;26.15;55.95
4735;BME280;2381;50.676;12.612;2022-07-29T13:05:57;97304.56;;;25.95;63.54
4735;BME280;2381;50.676;12.612;2022-07-29T13:09:02;97300.03;;;25.81;69.39
4735;BME280;2381;50.676;12.612;2022-07-29T13:12:08;97293.50;;;25.43;83.41
4735;BME280;2381;50.676;12.612;2022-07-29T13:15:13;97291.41;;;25.30;87.80
4735;BME280;2381;50.676;12.612;2022-07-29T13:18:29;97287.06;;;25.34;98.08
4735;BME280;2381;50.676;12.612;2022-07-29T13:21:32;97288.19;;;25.28;96.43
4735;BME280;2381;50.676;12.612;2022-07-29T13:24:45;97296.25;;;25.38;84.13
4735;BME280;2381;50.676;12.612;2022-07-29T13:27:49;97300.50;;;25.44;72.85
4735;BME280;2381;50.676;12.612;2022-07-29T13:30:53;97299.69;;;25.49;68.67
4735;BME280;2381;50.676;12.612;2022-07-29T13:33:56;97299.94;;;25.52;70.94
4735;BME280;2381;50.676;12.612;2022-07-29T13:37:00;97301.81;;;25.57;71.59
4735;BME280;2381;50.676;12.612;2022-07-29T13:40:03;97309.69;;;25.48;75.67
4735;BME280;2381;50.676;12.612;2022-07-29T13:43:12;97314.63;;;25.21;79.15
4735;BME280;2381;50.676;12.612;2022-07-29T13:46:15;97309.31;;;24.91;81.51
4735;BME280;2381;50.676;12.612;2022-07-29T13:49:17;97310.72;;;24.69;84.17
4735;BME280;2381;50.676;12.612;2022-07-29T13:52:20;97303.97;;;24.51;87.20
4735;BME280;2381;50.676;12.612;2022-07-29T13:55:24;97301.84;;;24.23;77.23
4735;BME280;2381;50.676;12.612;2022-07-29T13:58:28;97311.53;;;24.05;75.62
4735;BME280;2381;50.676;12.612;2022-07-29T14:01:31;97310.97;;;23.93;75.72
4735;BME280;2381;50.676;12.612;2022-07-29T14:04:34;97316.88;;;23.85;73.47
4735;BME280;2381;50.676;12.612;2022-07-29T14:07:40;97319.50;;;23.70;72.07
4735;BME280;2381;50.676;12.612;2022-07-29T14:10:42;97323.22;;;23.54;75.33
4735;BME280;2381;50.676;12.612;2022-07-29T14:13:46;97356.88;;;23.61;75.41
4735;BME280;2381;50.676;12.612;2022-07-29T14:16:49;97388.03;;;23.06;78.59
4735;BME280;2381;50.676;12.612;2022-07-29T14:19:53;97407.38;;;22.66;90.30
4735;BME280;2381;50.676;12.612;2022-07-29T14:22:55;97401.31;;;22.23;100.00
4735;BME280;2381;50.676;12.612;2022-07-29T14:25:58;97402.50;;;21.41;100.00
4735;BME280;2381;50.676;12.612;2022-07-29T14:29:03;97407.88;;;21.03;100.00
4735;BME280;2381;50.676;12.612;2022-07-29T14:32:06;97410.56;;;20.87;100.00
4735;BME280;2381;50.676;12.612;2022-07-29T14:35:09;97406.66;;;20.45;100.00
4735;BME280;2381;50.676;12.612;2022-07-29T14:38:13;97406.97;;;20.32;100.00
4735;BME280;2381;50.676;12.612;2022-07-29T14:41:16;97393.66;;;19.92;100.00
4735;BME280;2381;50.676;12.612;2022-07-29T14:44:20;97389.38;;;19.63;100.00
4735;BME280;2381;50.676;12.612;2022-07-29T14:47:23;97363.88;;;19.44;100.00
4735;BME280;2381;50.676;12.612;2022-07-29T14:50:26;97362.63;;;19.35;100.00
4735;BME280;2381;50.676;12.612;2022-07-29T14:53:32;97357.22;;;19.19;100.00
4735;BME280;2381;50.676;12.612;2022-07-29T14:56:35;97355.34;;;19.08;100.00
4735;BME280;2381;50.676;12.612;2022-07-29T14:59:48;97340.47;;;19.00;100.00
4735;BME280;2381;50.676;12.612;2022-07-29T15:02:52;97333.06;;;18.79;100.00
4735;BME280;2381;50.676;12.612;2022-07-29T15:06:03;97318.81;;;18.85;100.00
4735;BME280;2381;50.676;12.612;2022-07-29T15:09:06;97322.88;;;18.76;100.00
4735;BME280;2381;50.676;12.612;2022-07-29T15:12:09;97332.88;;;18.58;100.00
4735;BME280;2381;50.676;12.612;2022-07-29T15:15:13;97328.47;;;18.63;100.00
4735;BME280;2381;50.676;12.612;2022-07-29T15:18:16;97327.88;;;18.73;100.00
4735;BME280;2381;50.676;12.612;2022-07-29T15:21:26;97314.19;;;18.69;100.00
4735;BME280;2381;50.676;12.612;2022-07-29T15:24:29;97306.91;;;18.53;100.00
4735;BME280;2381;50.676;12.612;2022-07-29T15:27:31;97311.41;;;18.53;100.00
4735;BME280;2381;50.676;12.612;2022-07-29T15:30:36;97302.63;;;18.52;100.00
4735;BME280;2381;50.676;12.612;2022-07-29T15:33:42;97289.16;;;18.70;100.00
4735;BME280;2381;50.676;12.612;2022-07-29T15:36:45;97288.88;;;18.83;100.00
4735;BME280;2381;50.676;12.612;2022-07-29T15:39:53;97269.94;;;18.96;100.00
4735;BME280;2381;50.676;12.612;2022-07-29T15:43:03;97269.75;;;19.14;100.00
4735;BME280;2381;50.676;12.612;2022-07-29T15:46:08;97271.38;;;19.15;100.00
4735;BME280;2381;50.676;12.612;2022-07-29T15:49:29;97259.44;;;19.06;100.00
4735;BME280;2381;50.676;12.612;2022-07-29T15:52:49;97262.13;;;19.06;100.00
4735;BME280;2381;50.676;12.612;2022-07-29T15:55:52;97249.81;;;19.05;100.00
4735;BME280;2381;50.676;12.612;2022-07-29T15:58:55;97250.50;;;19.12;100.00
4735;BME280;2381;50.676;12.612;2022-07-29T16:02:00;97239.00;;;19.12;100.00
4735;BME280;2381;50.676;12.612;2022-07-29T16:05:04;97243.22;;;19.08;100.00
4735;BME280;2381;50.676;12.612;2022-07-29T16:08:10;97241.25;;;19.03;100.00
4735;BME280;2381;50.676;12.612;2022-07-29T16:11:13;97244.47;;;19.05;100.00
4735;BME280;2381;50.676;12.612;2022-07-29T16:14:16;97252.84;;;19.09;100.00
4735;BME280;2381;50.676;12.612;2022-07-29T16:17:20;97257.56;;;19.18;100.00
4735;BME280;2381;50.676;12.612;2022-07-29T16:20:23;97258.59;;;19.17;100.00
4735;BME280;2381;50.676;12.612;2022-07-29T16:23:27;97255.50;;;19.09;100.00
4735;BME280;2381;50.676;12.612;2022-07-29T16:26:30;97256.34;;;18.98;100.00
4735;BME280;2381;50.676;12.612;2022-07-29T16:29:33;97256.28;;;19.09;100.00
4735;BME280;2381;50.676;12.612;2022-07-29T16:32:39;97254.44;;;19.10;100.00
4735;BME280;2381;50.676;12.612;2022-07-29T16:35:41;97249.56;;;19.18;100.00
4735;BME280;2381;50.676;12.612;2022-07-29T16:38:44;97257.84;;;19.05;100.00